createdAt,value
2023-05-05T00:00:16.107Z,101650.34
2023-05-05T00:02:44.167Z,101656.78
2023-05-05T00:05:11.689Z,101653.00
2023-05-05T00:07:38.868Z,101649.28
2023-05-05T00:10:10.078Z,101651.09
2023-05-05T00:12:37.618Z,101646.72
2023-05-05T00:15:05.179Z,101637.09
2023-05-05T00:17:33.437Z,101639.91
2023-05-05T00:20:00.631Z,101631.16
2023-05-05T00:22:38.334Z,101637.81
2023-05-05T00:25:08.232Z,101633.44
2023-05-05T00:28:00.305Z,101637.13
2023-05-05T00:30:28.128Z,101641.59
2023-05-05T00:32:56.098Z,101645.16
2023-05-05T00:35:23.395Z,101648.22
2023-05-05T00:37:50.588Z,101648.56
2023-05-05T00:40:25.817Z,101651.16
2023-05-05T00:42:55.374Z,101640.16
2023-05-05T00:45:22.321Z,101639.44
2023-05-05T00:48:00.576Z,101634.41
2023-05-05T00:50:30.602Z,101638.94
2023-05-05T00:53:04.495Z,101634.75
2023-05-05T00:55:33.111Z,101637.81
2023-05-05T00:58:01.458Z,101623.13
2023-05-05T01:00:29.105Z,101629.41
2023-05-05T01:02:56.398Z,101629.75
2023-05-05T01:05:28.479Z,101630.28
2023-05-05T01:08:16.168Z,101631.22
2023-05-05T01:10:55.655Z,101624.22
2023-05-05T01:14:01.790Z,101622.50
2023-05-05T01:16:35.902Z,101622.66
2023-05-05T01:19:07.014Z,101615.59
2023-05-05T01:22:34.844Z,101618.44
2023-05-05T01:25:10.369Z,101626.66
2023-05-05T01:27:58.728Z,101614.34
2023-05-05T01:30:50.613Z,101622.88
2023-05-05T01:33:26.008Z,101614.97
2023-05-05T01:35:58.559Z,101620.81
2023-05-05T01:38:35.162Z,101616.31
2023-05-05T01:41:17.617Z,101617.38
2023-05-05T01:43:48.195Z,101616.75
2023-05-05T01:46:16.661Z,101606.34
2023-05-05T01:48:46.095Z,101605.47
2023-05-05T01:51:13.979Z,101609.13
2023-05-05T01:53:41.900Z,101605.03
2023-05-05T01:56:11.655Z,101611.50
2023-05-05T01:58:39.710Z,101614.22
2023-05-05T02:01:07.175Z,101606.97
2023-05-05T02:03:42.721Z,101600.25
2023-05-05T02:06:21.036Z,101602.06
2023-05-05T02:08:49.923Z,101600.75
2023-05-05T02:11:20.213Z,101610.91
2023-05-05T02:13:54.808Z,101607.56
2023-05-05T02:16:24.250Z,101597.97
2023-05-05T02:18:55.927Z,101604.97
2023-05-05T02:21:23.265Z,101607.47
2023-05-05T02:23:52.215Z,101606.44
2023-05-05T02:26:28.823Z,101610.91
2023-05-05T02:29:04.578Z,101604.19
2023-05-05T02:31:43.944Z,101606.00
2023-05-05T02:34:16.219Z,101611.66
2023-05-05T02:36:45.383Z,101610.72
2023-05-05T02:39:32.212Z,101612.50
2023-05-05T02:42:10.261Z,101615.22
2023-05-05T02:44:42.704Z,101610.94
2023-05-05T02:47:10.168Z,101607.81
2023-05-05T02:49:37.570Z,101608.66
2023-05-05T02:52:10.524Z,101611.94
2023-05-05T02:54:42.195Z,101603.09
2023-05-05T02:57:18.938Z,101599.34
2023-05-05T03:00:16.840Z,101605.75
2023-05-05T03:03:29.194Z,101608.09
2023-05-05T03:06:10.596Z,101595.50
2023-05-05T03:08:44.355Z,101599.00
2023-05-05T03:11:59.474Z,101603.72
2023-05-05T03:16:02.024Z,101606.44
2023-05-05T03:18:38.770Z,101604.72
2023-05-05T03:24:30.529Z,101599.88
2023-05-05T03:27:19.013Z,101604.03
2023-05-05T03:29:49.501Z,101605.50
2023-05-05T03:32:24.550Z,101604.00
2023-05-05T03:35:00.256Z,101601.41
2023-05-05T03:37:57.467Z,101609.25
2023-05-05T03:40:40.450Z,101602.34
2023-05-05T03:43:11.095Z,101594.19
2023-05-05T03:45:38.157Z,101599.25
2023-05-05T03:48:10.003Z,101601.13
2023-05-05T03:50:46.536Z,101590.38
2023-05-05T03:53:21.319Z,101591.09
2023-05-05T03:55:48.629Z,101593.63
2023-05-05T03:58:17.016Z,101594.41
2023-05-05T04:00:46.880Z,101589.56
2023-05-05T04:03:20.044Z,101587.94
2023-05-05T04:05:56.455Z,101586.78
2023-05-05T04:08:23.457Z,101587.94
2023-05-05T04:10:50.515Z,101584.00
2023-05-05T04:13:20.341Z,101572.84
2023-05-05T04:15:51.273Z,101580.31
2023-05-05T04:18:33.585Z,101583.41
2023-05-05T04:21:45.615Z,101593.91
2023-05-05T04:24:12.980Z,101602.09
2023-05-05T04:26:43.888Z,101601.34
2023-05-05T04:29:11.315Z,101597.81
2023-05-05T04:31:38.468Z,101591.19
2023-05-05T04:34:14.291Z,101604.28
2023-05-05T04:36:42.103Z,101600.84
2023-05-05T04:39:10.898Z,101599.31
2023-05-05T04:41:37.919Z,101604.91
2023-05-05T04:44:05.042Z,101606.56
2023-05-05T04:46:35.177Z,101599.00
2023-05-05T04:49:03.918Z,101599.88
2023-05-05T04:51:32.424Z,101591.22
2023-05-05T04:53:59.438Z,101602.09
2023-05-05T04:56:33.949Z,101602.41
2023-05-05T04:59:05.143Z,101603.78
2023-05-05T05:01:36.912Z,101605.47
2023-05-05T05:04:05.927Z,101608.44
2023-05-05T05:06:35.895Z,101607.78
2023-05-05T05:09:03.895Z,101609.72
2023-05-05T05:11:30.989Z,101611.31
2023-05-05T05:13:58.038Z,101613.53
2023-05-05T05:16:26.689Z,101616.19
2023-05-05T05:18:54.976Z,101618.81
2023-05-05T05:21:24.053Z,101624.28
2023-05-05T05:23:54.030Z,101623.75
2023-05-05T05:26:24.986Z,101628.56
2023-05-05T05:28:52.974Z,101623.41
2023-05-05T05:31:19.984Z,101622.09
2023-05-05T05:33:51.376Z,101624.50
2023-05-05T05:36:20.424Z,101628.81
2023-05-05T05:38:47.332Z,101628.25
2023-05-05T05:41:14.482Z,101633.31
2023-05-05T05:43:43.130Z,101634.13
2023-05-05T05:46:11.054Z,101638.78
2023-05-05T05:48:40.015Z,101632.53
2023-05-05T05:51:07.022Z,101636.59
2023-05-05T05:53:34.012Z,101642.63
2023-05-05T05:56:05.986Z,101641.38
2023-05-05T05:58:36.245Z,101643.78
2023-05-05T06:01:05.698Z,101638.63
2023-05-05T06:03:34.215Z,101628.81
2023-05-05T06:06:03.947Z,101636.97
2023-05-05T06:08:30.953Z,101641.06
2023-05-05T06:11:06.893Z,101641.72
2023-05-05T06:13:35.465Z,101640.19
2023-05-05T06:16:16.702Z,101649.84
2023-05-05T06:18:57.512Z,101647.25
2023-05-05T06:21:24.979Z,101647.66
2023-05-05T06:23:53.118Z,101649.09
2023-05-05T06:26:20.402Z,101645.84
2023-05-05T06:28:48.101Z,101649.97
2023-05-05T06:31:16.114Z,101643.88
2023-05-05T06:33:43.264Z,101642.63
2023-05-05T06:36:10.281Z,101641.66
2023-05-05T06:38:37.820Z,101643.28
2023-05-05T06:41:04.933Z,101649.44
2023-05-05T06:43:32.081Z,101646.25
2023-05-05T06:46:04.966Z,101639.09
2023-05-05T06:48:34.622Z,101641.06
2023-05-05T06:51:03.115Z,101639.16
2023-05-05T06:53:30.197Z,101640.50
2023-05-05T06:56:01.170Z,101644.19
2023-05-05T06:58:31.176Z,101641.44
2023-05-05T07:00:58.693Z,101639.41
2023-05-05T07:03:26.448Z,101639.19
2023-05-05T07:05:57.853Z,101643.66
2023-05-05T07:08:25.480Z,101643.31
2023-05-05T07:10:52.494Z,101641.25
2023-05-05T07:13:21.098Z,101642.66
2023-05-05T07:15:48.213Z,101645.25
2023-05-05T07:18:22.077Z,101640.03
2023-05-05T07:20:49.066Z,101644.03
2023-05-05T07:23:16.580Z,101643.28
2023-05-05T07:25:45.151Z,101649.34
2023-05-05T07:28:12.159Z,101649.81
2023-05-05T07:30:39.117Z,101646.53
2023-05-05T07:33:09.023Z,101646.47
2023-05-05T07:35:37.115Z,101646.91
2023-05-05T07:38:05.177Z,101645.06
2023-05-05T07:40:36.764Z,101646.16
2023-05-05T07:43:03.670Z,101651.28
2023-05-05T07:45:30.700Z,101652.94
2023-05-05T07:47:57.856Z,101649.06
2023-05-05T07:50:25.556Z,101647.16
2023-05-05T07:53:10.756Z,101649.19
2023-05-05T07:55:55.661Z,101642.28
2023-05-05T07:58:22.560Z,101640.97
2023-05-05T08:00:51.244Z,101651.66
2023-05-05T08:03:21.982Z,101645.59
2023-05-05T08:05:50.616Z,101642.41
2023-05-05T08:08:18.639Z,101644.25
2023-05-05T08:10:46.704Z,101646.59
2023-05-05T08:13:16.320Z,101650.84
2023-05-05T08:15:57.066Z,101644.00
2023-05-05T08:18:34.435Z,101647.47
2023-05-05T08:21:02.306Z,101649.31
2023-05-05T08:23:31.342Z,101646.16
2023-05-05T08:26:04.967Z,101647.06
2023-05-05T08:28:34.906Z,101640.34
2023-05-05T08:31:16.513Z,101640.84
2023-05-05T08:33:46.669Z,101635.09
2023-05-05T08:36:14.070Z,101641.44
2023-05-05T08:38:41.020Z,101640.59
2023-05-05T08:41:15.752Z,101635.78
2023-05-05T08:43:47.119Z,101640.66
2023-05-05T08:46:14.329Z,101639.16
2023-05-05T08:48:43.725Z,101636.06
2023-05-05T08:51:18.792Z,101641.66
2023-05-05T08:54:01.642Z,101642.28
2023-05-05T08:56:34.739Z,101640.16
2023-05-05T08:59:02.951Z,101636.25
2023-05-05T09:01:32.711Z,101632.13
2023-05-05T09:04:04.357Z,101627.53
2023-05-05T09:06:34.141Z,101635.16
2023-05-05T09:09:02.606Z,101627.88
2023-05-05T09:11:30.643Z,101625.13
2023-05-05T09:13:57.887Z,101627.84
2023-05-05T09:16:26.772Z,101618.59
2023-05-05T09:19:05.276Z,101614.66
2023-05-05T09:21:32.698Z,101613.09
2023-05-05T09:24:11.449Z,101600.34
2023-05-05T09:26:42.794Z,101613.22
2023-05-05T09:29:10.000Z,101615.28
2023-05-05T09:31:40.791Z,101616.53
2023-05-05T09:34:17.245Z,101612.34
2023-05-05T09:36:47.910Z,101604.09
2023-05-05T09:39:22.365Z,101610.81
2023-05-05T09:41:53.323Z,101601.97
2023-05-05T09:44:37.806Z,101598.53
2023-05-05T09:47:18.090Z,101601.31
2023-05-05T09:50:05.414Z,101596.44
2023-05-05T09:52:32.521Z,101588.81
2023-05-05T09:55:01.658Z,101586.94
2023-05-05T09:57:35.853Z,101595.88
2023-05-05T10:00:06.102Z,101589.72
2023-05-05T10:02:39.417Z,101595.47
2023-05-05T10:05:15.092Z,101586.63
2023-05-05T10:07:46.475Z,101590.72
2023-05-05T10:10:15.520Z,101590.38
2023-05-05T10:12:43.061Z,101587.94
2023-05-05T10:15:11.619Z,101582.13
2023-05-05T10:18:02.360Z,101577.19
2023-05-05T10:20:36.535Z,101581.50
2023-05-05T10:23:07.281Z,101580.47
2023-05-05T10:25:58.671Z,101568.38
2023-05-05T10:28:33.325Z,101568.56
2023-05-05T10:31:05.734Z,101568.47
2023-05-05T10:34:10.574Z,101559.78
2023-05-05T10:36:42.356Z,101550.00
2023-05-05T10:39:11.088Z,101548.94
2023-05-05T10:41:38.335Z,101552.66
2023-05-05T10:44:11.037Z,101549.81
2023-05-05T10:46:41.344Z,101544.38
2023-05-05T10:49:08.246Z,101535.50
2023-05-05T10:51:42.194Z,101541.81
2023-05-05T10:54:45.858Z,101532.22
2023-05-05T10:57:19.062Z,101531.50
2023-05-05T10:59:47.912Z,101526.44
2023-05-05T11:02:29.711Z,101522.16
2023-05-05T11:05:18.613Z,101519.81
2023-05-05T11:07:48.357Z,101517.16
2023-05-05T11:10:17.933Z,101527.63
2023-05-05T11:13:02.327Z,101514.91
2023-05-05T11:15:39.988Z,101515.38
2023-05-05T11:18:37.072Z,101514.16
2023-05-05T11:21:08.168Z,101510.75
2023-05-05T11:23:35.546Z,101504.97
2023-05-05T11:26:02.482Z,101505.97
2023-05-05T11:28:31.833Z,101496.66
2023-05-05T11:31:01.726Z,101494.13
2023-05-05T11:33:34.196Z,101491.63
2023-05-05T11:36:06.696Z,101488.44
2023-05-05T11:39:10.637Z,101488.09
2023-05-05T11:41:49.669Z,101484.09
2023-05-05T11:44:29.477Z,101486.56
2023-05-05T11:47:02.815Z,101484.72
2023-05-05T11:49:37.785Z,101489.09
2023-05-05T11:52:15.258Z,101483.69
2023-05-05T11:54:51.075Z,101480.22
2023-05-05T11:57:32.126Z,101484.78
2023-05-05T12:00:08.509Z,101482.81
2023-05-05T12:02:41.337Z,101481.38
2023-05-05T12:05:11.665Z,101475.66
2023-05-05T12:07:42.257Z,101475.53
2023-05-05T12:10:12.430Z,101471.28
2023-05-05T12:12:43.368Z,101469.13
2023-05-05T12:15:13.117Z,101474.06
2023-05-05T12:17:46.253Z,101460.59
2023-05-05T12:20:13.741Z,101460.50
2023-05-05T12:22:46.548Z,101469.97
2023-05-05T12:25:14.832Z,101453.19
2023-05-05T12:27:52.465Z,101465.22
2023-05-05T12:30:20.776Z,101460.09
2023-05-05T12:33:01.932Z,101461.81
2023-05-05T12:35:32.634Z,101445.81
2023-05-05T12:37:59.700Z,101460.88
2023-05-05T12:40:52.171Z,101451.06
2023-05-05T12:43:29.679Z,101459.16
2023-05-05T12:46:07.139Z,101450.50
2023-05-05T12:48:47.240Z,101441.41
2023-05-05T12:51:23.820Z,101438.00
2023-05-05T12:54:11.655Z,101430.72
2023-05-05T12:56:41.888Z,101436.19
2023-05-05T12:59:33.216Z,101419.06
2023-05-05T13:02:03.861Z,101418.88
2023-05-05T13:04:48.938Z,101411.38
2023-05-05T13:07:17.168Z,101407.25
2023-05-05T13:09:46.298Z,101406.31
2023-05-05T13:12:20.740Z,101405.31
2023-05-05T13:14:49.387Z,101395.97
2023-05-05T13:17:19.300Z,101385.66
2023-05-05T13:19:46.816Z,101393.78
2023-05-05T13:22:17.913Z,101396.50
2023-05-05T13:24:52.355Z,101387.78
2023-05-05T13:27:20.718Z,101375.59
2023-05-05T13:29:48.046Z,101363.19
2023-05-05T13:32:15.108Z,101360.50
2023-05-05T13:34:44.539Z,101369.22
2023-05-05T13:37:11.591Z,101362.22
2023-05-05T13:39:38.695Z,101359.84
2023-05-05T13:42:10.775Z,101354.50
2023-05-05T13:44:53.693Z,101347.44
2023-05-05T13:47:21.354Z,101355.66
2023-05-05T13:49:49.215Z,101352.66
2023-05-05T13:52:18.946Z,101345.72
2023-05-05T13:54:45.938Z,101347.13
2023-05-05T13:57:24.290Z,101341.53
2023-05-05T13:59:52.457Z,101340.75
2023-05-05T14:02:21.622Z,101332.81
2023-05-05T14:04:50.466Z,101334.31
2023-05-05T14:07:34.024Z,101333.38
2023-05-05T14:10:03.712Z,101335.03
2023-05-05T14:12:33.737Z,101322.34
2023-05-05T14:15:09.200Z,101332.31
2023-05-05T14:17:48.345Z,101331.53
2023-05-05T14:20:22.775Z,101326.53
2023-05-05T14:22:50.976Z,101310.75
2023-05-05T14:25:24.324Z,101317.91
2023-05-05T14:28:10.516Z,101320.63
2023-05-05T14:30:41.159Z,101321.06
2023-05-05T14:33:08.263Z,101318.09
2023-05-05T14:35:45.512Z,101322.72
2023-05-05T14:38:12.690Z,101318.31
2023-05-05T14:40:48.561Z,101324.09
2023-05-05T14:43:16.010Z,101320.16
2023-05-05T14:45:44.541Z,101327.41
2023-05-05T14:48:11.863Z,101325.31
2023-05-05T14:50:44.763Z,101321.72
2023-05-05T14:53:18.554Z,101314.81
2023-05-05T14:55:46.333Z,101298.28
2023-05-05T14:58:13.738Z,101302.84
2023-05-05T15:00:41.041Z,101303.44
2023-05-05T15:03:08.187Z,101311.41
2023-05-05T15:05:45.838Z,101306.84
2023-05-05T15:08:19.537Z,101307.72
2023-05-05T15:11:16.338Z,101305.88
2023-05-05T15:13:43.258Z,101305.75
2023-05-05T15:16:14.816Z,101308.19
2023-05-05T15:18:42.023Z,101306.38
2023-05-05T15:21:09.175Z,101299.69
2023-05-05T15:23:37.520Z,101301.91
2023-05-05T15:26:12.365Z,101313.81
2023-05-05T15:28:39.413Z,101305.97
2023-05-05T15:31:06.601Z,101304.81
2023-05-05T15:33:33.894Z,101304.09
2023-05-05T15:36:00.912Z,101298.47
2023-05-05T15:38:29.390Z,101297.06
2023-05-05T15:40:56.530Z,101293.41
2023-05-05T15:43:23.593Z,101297.00
2023-05-05T15:45:51.747Z,101305.00
2023-05-05T15:48:20.334Z,101309.16
2023-05-05T15:50:47.796Z,101301.69
2023-05-05T15:53:20.993Z,101299.13
2023-05-05T15:55:49.292Z,101294.13
2023-05-05T15:58:16.286Z,101297.47
2023-05-05T16:00:47.197Z,101297.81
2023-05-05T16:03:14.385Z,101296.16
2023-05-05T16:05:42.195Z,101295.66
2023-05-05T16:08:11.248Z,101290.22
2023-05-05T16:10:38.345Z,101280.53
2023-05-05T16:13:05.337Z,101283.94
2023-05-05T16:15:32.413Z,101279.56
2023-05-05T16:17:59.787Z,101285.25
2023-05-05T16:20:27.615Z,101272.53
2023-05-05T16:22:55.906Z,101277.63
2023-05-05T16:25:23.916Z,101272.72
2023-05-05T16:27:51.042Z,101273.38
2023-05-05T16:30:18.039Z,101273.34
2023-05-05T16:32:53.165Z,101268.50
2023-05-05T16:35:25.456Z,101272.41
2023-05-05T16:37:54.272Z,101270.47
2023-05-05T16:40:21.744Z,101272.50
2023-05-05T16:42:48.825Z,101268.72
2023-05-05T16:45:17.602Z,101267.78
2023-05-05T16:47:55.653Z,101259.75
2023-05-05T16:50:23.634Z,101259.13
2023-05-05T16:52:51.116Z,101266.66
2023-05-05T16:55:18.064Z,101269.06
2023-05-05T16:57:44.969Z,101248.75
2023-05-05T17:03:01.051Z,101246.06
2023-05-05T17:05:30.848Z,101246.59
2023-05-05T17:07:57.863Z,101247.81
2023-05-05T17:10:24.955Z,101248.47
2023-05-05T17:12:51.950Z,101253.78
2023-05-05T17:15:18.963Z,101251.59
2023-05-05T17:17:55.211Z,101249.59
2023-05-05T17:20:23.048Z,101247.72
2023-05-05T17:22:59.001Z,101257.00
2023-05-05T17:25:33.406Z,101261.41
2023-05-05T17:28:00.472Z,101256.56
2023-05-05T17:30:27.934Z,101247.94
2023-05-05T17:32:54.956Z,101255.00
2023-05-05T17:35:39.312Z,101247.56
2023-05-05T17:38:07.242Z,101254.63
2023-05-05T17:40:34.183Z,101250.84
2023-05-05T17:43:01.164Z,101245.50
2023-05-05T17:45:28.259Z,101247.22
2023-05-05T17:47:55.450Z,101253.97
2023-05-05T17:50:22.582Z,101253.81
2023-05-05T17:52:59.714Z,101256.94
2023-05-05T17:55:27.322Z,101252.34
2023-05-05T17:57:56.399Z,101256.66
2023-05-05T18:00:23.522Z,101252.75
2023-05-05T18:03:01.366Z,101252.34
2023-05-05T18:05:30.747Z,101246.72
2023-05-05T18:07:58.465Z,101252.91
2023-05-05T18:10:26.105Z,101254.63
2023-05-05T18:12:53.354Z,101255.44
2023-05-05T18:15:23.784Z,101259.25
2023-05-05T18:17:50.981Z,101249.81
2023-05-05T18:20:18.615Z,101260.97
2023-05-05T18:22:52.458Z,101258.59
2023-05-05T18:25:20.219Z,101258.00
2023-05-05T18:27:47.664Z,101250.69
2023-05-05T18:30:17.902Z,101253.81
2023-05-05T18:32:46.714Z,101250.84
2023-05-05T18:35:14.662Z,101248.25
2023-05-05T18:37:42.601Z,101258.06
2023-05-05T18:40:15.990Z,101254.75
2023-05-05T18:42:44.215Z,101255.44
2023-05-05T18:45:11.582Z,101259.41
2023-05-05T18:47:40.661Z,101262.72
2023-05-05T18:50:08.942Z,101257.38
2023-05-05T18:52:47.775Z,101256.06
2023-05-05T18:55:15.444Z,101256.16
2023-05-05T18:57:50.030Z,101261.13
2023-05-05T19:00:23.958Z,101263.31
2023-05-05T19:02:51.931Z,101258.59
2023-05-05T19:05:19.169Z,101263.03
2023-05-05T19:07:56.255Z,101263.72
2023-05-05T19:10:23.468Z,101273.53
2023-05-05T19:12:58.631Z,101276.19
2023-05-05T19:15:29.492Z,101268.03
2023-05-05T19:18:06.745Z,101273.38
2023-05-05T19:20:38.839Z,101278.63
2023-05-05T19:23:07.421Z,101278.59
2023-05-05T19:25:41.134Z,101276.50
2023-05-05T19:28:08.100Z,101281.38
2023-05-05T19:30:35.394Z,101279.97
2023-05-05T19:33:05.918Z,101284.84
2023-05-05T19:35:33.142Z,101281.72
2023-05-05T19:38:00.227Z,101274.41
2023-05-05T19:40:31.543Z,101271.25
2023-05-05T19:43:01.385Z,101270.78
2023-05-05T19:45:28.314Z,101273.84
2023-05-05T19:47:55.337Z,101274.94
2023-05-05T19:50:22.415Z,101275.41
2023-05-05T19:52:49.758Z,101267.47
2023-05-05T19:55:18.987Z,101266.78
2023-05-05T19:57:46.005Z,101267.13
2023-05-05T20:00:13.462Z,101262.56
2023-05-05T20:02:41.585Z,101262.47
2023-05-05T20:05:09.272Z,101270.56
2023-05-05T20:07:36.492Z,101265.13
2023-05-05T20:10:11.525Z,101265.44
2023-05-05T20:12:42.072Z,101263.88
2023-05-05T20:15:11.280Z,101262.56
2023-05-05T20:17:40.365Z,101269.84
2023-05-05T20:20:08.127Z,101270.09
2023-05-05T20:22:35.199Z,101269.50
2023-05-05T20:25:03.671Z,101267.03
2023-05-05T20:27:30.780Z,101270.06
2023-05-05T20:29:57.919Z,101269.75
2023-05-05T20:32:25.265Z,101268.03
2023-05-05T20:34:52.306Z,101264.22
2023-05-05T20:37:19.336Z,101266.91
2023-05-05T20:39:50.219Z,101269.31
2023-05-05T20:42:28.629Z,101267.56
2023-05-05T20:44:58.309Z,101265.25
2023-05-05T20:47:25.407Z,101264.44
2023-05-05T20:49:52.719Z,101264.81
2023-05-05T20:52:21.822Z,101253.84
2023-05-05T20:54:48.790Z,101266.25
2023-05-05T20:57:18.633Z,101268.25
2023-05-05T20:59:46.683Z,101259.63
2023-05-05T21:02:13.718Z,101262.06
2023-05-05T21:04:40.853Z,101267.41
2023-05-05T21:07:07.864Z,101261.53
2023-05-05T21:09:37.739Z,101256.44
2023-05-05T21:12:05.219Z,101257.84
2023-05-05T21:14:32.336Z,101252.44
2023-05-05T21:16:59.408Z,101254.47
2023-05-05T21:19:26.396Z,101257.06
2023-05-05T21:21:54.202Z,101252.28
2023-05-05T21:24:24.452Z,101253.53
2023-05-05T21:26:56.674Z,101259.72
2023-05-05T21:29:27.309Z,101256.22
2023-05-05T21:32:04.307Z,101259.88
2023-05-05T21:34:32.435Z,101256.44
2023-05-05T21:37:08.312Z,101252.09
2023-05-05T21:39:36.598Z,101253.28
2023-05-05T21:42:03.638Z,101253.59
2023-05-05T21:44:31.325Z,101258.94
2023-05-05T21:47:04.049Z,101249.28
2023-05-05T21:49:30.994Z,101257.38
2023-05-05T21:52:09.683Z,101249.38
2023-05-05T21:54:49.897Z,101248.09
2023-05-05T21:57:17.128Z,101249.44
2023-05-05T21:59:47.547Z,101255.53
2023-05-05T22:02:14.795Z,101262.69
2023-05-05T22:04:42.467Z,101250.00
2023-05-05T22:07:09.642Z,101259.78
2023-05-05T22:09:36.669Z,101254.06
2023-05-05T22:12:04.217Z,101254.41
2023-05-05T22:14:40.314Z,101255.09
2023-05-05T22:17:07.384Z,101252.00
2023-05-05T22:19:34.374Z,101262.97
2023-05-05T22:22:01.715Z,101269.69
2023-05-05T22:24:31.688Z,101263.22
2023-05-05T22:27:19.709Z,101267.38
2023-05-05T22:29:46.976Z,101265.41
2023-05-05T22:32:14.070Z,101265.88
2023-05-05T22:34:41.131Z,101260.03
2023-05-05T22:37:10.853Z,101260.25
2023-05-05T22:39:56.004Z,101256.78
2023-05-05T22:42:34.832Z,101264.16
2023-05-05T22:45:02.115Z,101258.31
2023-05-05T22:47:29.217Z,101255.28
2023-05-05T22:50:01.680Z,101255.13
2023-05-05T22:52:29.348Z,101253.22
2023-05-05T22:54:56.832Z,101257.34
2023-05-05T22:57:23.859Z,101257.88
2023-05-05T23:00:00.490Z,101256.88
2023-05-05T23:02:27.736Z,101255.47
2023-05-05T23:04:54.835Z,101251.94
2023-05-05T23:07:24.280Z,101248.28
2023-05-05T23:09:51.154Z,101254.38
2023-05-05T23:12:18.424Z,101251.88
2023-05-05T23:14:45.530Z,101252.72
2023-05-05T23:17:16.440Z,101247.13
2023-05-05T23:19:48.461Z,101248.97
2023-05-05T23:22:15.436Z,101253.31
2023-05-05T23:24:43.235Z,101252.13
2023-05-05T23:27:12.649Z,101255.44
2023-05-05T23:29:40.396Z,101253.16
2023-05-05T23:32:10.381Z,101251.56
2023-05-05T23:34:37.349Z,101251.09
2023-05-05T23:37:06.223Z,101244.16
2023-05-05T23:39:38.055Z,101242.75
2023-05-05T23:42:05.033Z,101246.63
2023-05-05T23:44:32.155Z,101244.00
2023-05-05T23:47:06.954Z,101234.50
2023-05-05T23:49:33.911Z,101231.00
2023-05-05T23:52:04.020Z,101231.28
2023-05-05T23:54:30.974Z,101224.28
2023-05-05T23:56:58.944Z,101230.09
2023-05-05T23:59:26.705Z,101227.88
